Columbus/Rickenbacker ANGB, Ohio
Current Conditions -  °F | °C
As of 9:15 AM on Thursday 29 Jan 2015 (Local Time) from KLCK Reporting Station
Unknown Precip Unknown Precip  
Wind Chill: 25°   Ceiling: 5500
Heat Index: 33°   Visibility: 10mi
Dew Point: 28°   Wind: 10mph
Humidity: 81%   Direction: 180°S
Pressure: 29.9"   Gusts: NA
Location:  39.82°N, 82.93°W
Report Text: KLCK 291415Z AUTO 18009KT 10SM UP BKN055 OVC070 01/M02 A2990 RMK AO2 T00061024
Loading
Personal Weather Stations






























Interactive Weather Map New forecast layout! Learn more

10-Day Weather Forecast

Advertisements
Track Severe Weather on mobile